Aidamar — ICSJ — position and weather

sailwx.info

Track history (hours):
 
Tides and Currents Weather Stations Pressure Air Temp Water Temp Dewpoint Dewpoint Depression Visibility Wind Speed Wind Dir Waves Ship Positions

Aidamar

Last reported at 2015-Jan-31 12:33 UTC. Time now 2015-Jan-31 13:06 UTC.
Position N 39°33' E 002°38'.

Length 253 m; draft 7.3 m.

Type: Ship. MMSI: 247312900.

Date/timePositionNaut miles runAvg speedWind from/ knotsBaromVisibWave heightAir tempDewpointWater temp
2015-Jan-31 12:33N 39°33' E 002°38'0 0.0
2015-Jan-31 11:33N 39°33' E 002°38'0 0.0
2015-Jan-31 10:33N 39°33' E 002°38'0 0.0
2015-Jan-31 09:33N 39°33' E 002°38'0 0.0
2015-Jan-31 08:33N 39°33' E 002°38'0 0.0
2015-Jan-31 07:33N 39°33' E 002°38'258257.6
2015-Jan-31 06:33N 43°21' E 005°20'258258.6
2015-Jan-31 05:33N 39°33' E 002°38'0 0.0
2015-Jan-31 04:33N 39°33' E 002°38'0 0.0
2015-Jan-31 03:33N 39°33' E 002°38'0 0.0
2015-Jan-31 02:32N 39°33' E 002°38'0 0.0
2015-Jan-31 01:33N 39°33' E 002°38'0 0.0
2015-Jan-31 00:33N 39°33' E 002°38'0 0.0
2015-Jan-30 23:33N 39°33' E 002°38'0 0.0
2015-Jan-30 22:32N 39°33' E 002°38'0 0.1
2015-Jan-30 21:34N 39°33' E 002°38'1010.1
2015-Jan-30 20:33N 39°26' E 002°29'1616.0
2015-Jan-30 19:33N 39°37' E 002°15'1818.3
2015-Jan-30 18:33N 39°56' E 002°14'1919.1
2015-Jan-30 17:33N 40°15' E 002°12'1919.3
2015-Jan-30 16:33N 40°34' E 002°12'2019.5
2015-Jan-30 15:33N 40°54' E 002°12'1919.1
2015-Jan-30 14:33N 41°13' E 002°11'9 4.2
2015-Jan-30 12:31N 41°21' E 002°11'0 0.0
2015-Jan-30 11:03N 41°21' E 002°11'0 0.0
2015-Jan-30 07:05N 41°21' E 002°11'0 0.0
2015-Jan-30 01:23N 41°21' E 002°11'0 0.0
2015-Jan-30 00:29N 41°21' E 002°11'0 0.0
2015-Jan-29 20:28N 41°21' E 002°11'1 0.6
2015-Jan-29 19:33N 41°21' E 002°10'4 4.3
2015-Jan-29 18:33N 41°17' E 002°12'1717.4
2015-Jan-29 17:33N 41°15' E 002°35'1918.8
2015-Jan-29 16:33N 41°16' E 002°60'1918.7
2015-Jan-29 15:32N 41°16' E 003°25'1918.4
2015-Jan-29 14:32N 41°16' E 003°50'1918.7
2015-Jan-29 13:32N 41°16' E 004°15'2119.8
2015-Jan-29 12:28N 41°16' E 004°42'39210.0
2015-Jan-27 21:24N 40°42' E 013°20'2016.6
2015-Jan-27 20:11N 40°39' E 013°46'1016.6
2015-Jan-27 19:33N 40°39' E 013°60'1615.5
2015-Jan-27 18:30N 40°49' E 014°17'1 0.1
2015-Jan-27 06:07N 40°50' E 014°16'4 6.7
2015-Jan-27 05:33N 40°46' E 014°16'1514.5
2015-Jan-27 04:33N 40°39' E 013°60'1616.1
2015-Jan-27 03:33N 40°41' E 013°39'1615.7
2015-Jan-27 02:33N 40°44' E 013°19'38315.2
2015-Jan-26 01:27N 41°39' E 004°56'1617.1
2015-Jan-26 00:30N 41°41' E 004°34'1616.8
2015-Jan-25 23:33N 41°43' E 004°13'1717.1
2015-Jan-25 22:33N 41°45' E 003°50'89 5.1
2015-Jan-25 05:06N 40°55' E 002°12'1017.5
2015-Jan-25 04:33N 40°46' E 002°12'1313.0
2015-Jan-25 03:33N 40°33' E 002°13'1111.0
2015-Jan-25 02:34N 40°22' E 002°13'1414.2
2015-Jan-25 01:33N 40°08' E 002°14'1716.8
2015-Jan-25 00:33N 39°51' E 002°15'1917.6
2015-Jan-24 23:30N 39°32' E 002°17'1415.1
2015-Jan-24 22:33N 39°28' E 002°34'5 5.1
2015-Jan-24 21:32N 39°33' E 002°38'8991.8
2015-Jan-24 20:33N 39°00' E 004°25'175174.2
2015-Jan-24 19:33N 41°21' E 002°11'110107.6
2015-Jan-24 18:32N 39°33' E 002°38'0 0.0
2015-Jan-24 17:31N 39°33' E 002°38'0 0.0
2015-Jan-24 16:33N 39°33' E 002°38'0 0.0
2015-Jan-24 15:33N 39°33' E 002°38'0 0.0
2015-Jan-24 14:33N 39°33' E 002°38'0 0.0
2015-Jan-24 13:33N 39°33' E 002°38'0 0.0
2015-Jan-24 12:33N 39°33' E 002°38'0 0.0
2015-Jan-24 11:33N 39°33' E 002°38'0 0.0
2015-Jan-24 10:33N 39°33' E 002°38'0 0.0
2015-Jan-24 09:33N 39°33' E 002°38'0 0.0
2015-Jan-24 08:33N 39°33' E 002°38'0 0.0
2015-Jan-24 07:32N 39°33' E 002°38'0 0.0
2015-Jan-24 06:32N 39°33' E 002°38'0 0.0
2015-Jan-24 05:25N 39°33' E 002°38'0 0.0
2015-Jan-24 04:33N 39°33' E 002°38'3 3.3
2015-Jan-24 03:33N 39°30' E 002°36'8 8.3
2015-Jan-24 02:33N 39°26' E 002°27'1211.8
2015-Jan-24 01:33N 39°32' E 002°14'1514.9
2015-Jan-24 00:33N 39°47' E 002°11'1615.8
2015-Jan-23 23:33N 40°03' E 002°11'1616.2
2015-Jan-23 22:34N 40°19' E 002°11'1615.9
2015-Jan-23 21:33N 40°35' E 002°11'1010.2
2015-Jan-23 20:33N 40°45' E 002°11'1615.9
2015-Jan-23 19:33N 41°01' E 002°11'1716.2
2015-Jan-23 18:32N 41°18' E 002°10'4 1.8
2015-Jan-23 16:24N 41°21' E 002°11'0 0.0
2015-Jan-23 14:12N 41°21' E 002°11'0 0.0
2015-Jan-23 13:30N 41°21' E 002°11'0 0.0
2015-Jan-23 12:30N 41°21' E 002°11'0 0.0
2015-Jan-23 11:08N 41°21' E 002°11'0 0.0
2015-Jan-23 09:08N 41°21' E 002°11'0 0.0
2015-Jan-23 08:33N 41°21' E 002°11'6 4.5
2015-Jan-23 07:17N 41°16' E 002°13'7010.0
2015-Jan-23 00:18N 41°57' E 003°29'1615.4
2015-Jan-22 23:16N 42°08' E 003°44'4515.9
2015-Jan-22 20:28N 42°40' E 004°26'2217.6
2015-Jan-22 19:14N 42°55' E 004°48'1716.8
2015-Jan-22 18:13N 43°08' E 005°03'1116.8
2015-Jan-22 17:33N 43°16' E 005°13'6 6.4
2015-Jan-22 16:33N 43°21' E 005°20'0 0.0
2015-Jan-22 15:23N 43°21' E 005°20'0 0.0
2015-Jan-22 14:29N 43°21' E 005°20'0 0.0
2015-Jan-22 13:29N 43°21' E 005°20'0 0.0
2015-Jan-22 12:29N 43°21' E 005°20'0 0.0
2015-Jan-22 11:17N 43°21' E 005°20'0 0.0
2015-Jan-22 10:23N 43°21' E 005°20'0 0.0
2015-Jan-22 09:29N 43°21' E 005°20'0 0.0
2015-Jan-22 08:29N 43°21' E 005°20'0 0.0
2015-Jan-22 07:29N 43°21' E 005°20'0 0.0
2015-Jan-22 06:29N 43°21' E 005°20'3 3.4
2015-Jan-22 05:33N 43°19' E 005°16'1514.5
2015-Jan-22 04:33N 43°05' E 005°12'1615.7
2015-Jan-22 03:33N 42°55' E 004°55'1616.0
2015-Jan-22 02:33N 42°44' E 004°39'1515.4
2015-Jan-22 01:33N 42°33' E 004°24'8 8.0
2015-Jan-22 00:33N 42°28' E 004°17'33 8.2
2015-Jan-21 20:28N 42°05' E 003°44'8 8.0
2015-Jan-21 19:25N 41°59' E 003°36'11 7.9
2015-Jan-21 18:05N 41°52' E 003°25'6 7.2
2015-Jan-21 17:13N 41°49' E 003°18'5 7.1
2015-Jan-21 16:33N 41°46' E 003°13'8 7.8
2015-Jan-21 15:33N 41°42' E 003°04'18 8.3
2015-Jan-21 13:22N 41°31' E 002°45'  
Track history (hours):
 
Tides and Currents Weather Stations Pressure Air Temp Water Temp Dewpoint Dewpoint Depression Visibility Wind Speed Wind Dir Waves Ship Positions

Aidamar

Last reported at 2015-Jan-31 12:33 UTC. Time now 2015-Jan-31 13:06 UTC.
Position N 39°33' E 002°38'.

Length 253 m; draft 7.3 m.

Type: Ship. MMSI: 247312900.

Date/timePositionNaut miles runAvg speedWind from/ knotsBaromVisibWave heightAir tempDewpointWater temp
2015-Jan-31 12:33N 39°33' E 002°38'0 0.0
2015-Jan-31 11:33N 39°33' E 002°38'0 0.0
2015-Jan-31 10:33N 39°33' E 002°38'0 0.0
2015-Jan-31 09:33N 39°33' E 002°38'0 0.0
2015-Jan-31 08:33N 39°33' E 002°38'0 0.0
2015-Jan-31 07:33N 39°33' E 002°38'258257.6
2015-Jan-31 06:33N 43°21' E 005°20'258258.6
2015-Jan-31 05:33N 39°33' E 002°38'0 0.0
2015-Jan-31 04:33N 39°33' E 002°38'0 0.0
2015-Jan-31 03:33N 39°33' E 002°38'0 0.0
2015-Jan-31 02:32N 39°33' E 002°38'0 0.0
2015-Jan-31 01:33N 39°33' E 002°38'0 0.0
2015-Jan-31 00:33N 39°33' E 002°38'0 0.0
2015-Jan-30 23:33N 39°33' E 002°38'0 0.0
2015-Jan-30 22:32N 39°33' E 002°38'0 0.1
2015-Jan-30 21:34N 39°33' E 002°38'1010.1
2015-Jan-30 20:33N 39°26' E 002°29'1616.0
2015-Jan-30 19:33N 39°37' E 002°15'1818.3
2015-Jan-30 18:33N 39°56' E 002°14'1919.1
2015-Jan-30 17:33N 40°15' E 002°12'1919.3
2015-Jan-30 16:33N 40°34' E 002°12'2019.5
2015-Jan-30 15:33N 40°54' E 002°12'1919.1
2015-Jan-30 14:33N 41°13' E 002°11'9 4.2
2015-Jan-30 12:31N 41°21' E 002°11'0 0.0
2015-Jan-30 11:03N 41°21' E 002°11'0 0.0
2015-Jan-30 07:05N 41°21' E 002°11'0 0.0
2015-Jan-30 01:23N 41°21' E 002°11'0 0.0
2015-Jan-30 00:29N 41°21' E 002°11'0 0.0
2015-Jan-29 20:28N 41°21' E 002°11'1 0.6
2015-Jan-29 19:33N 41°21' E 002°10'4 4.3
2015-Jan-29 18:33N 41°17' E 002°12'1717.4
2015-Jan-29 17:33N 41°15' E 002°35'1918.8
2015-Jan-29 16:33N 41°16' E 002°60'1918.7
2015-Jan-29 15:32N 41°16' E 003°25'1918.4
2015-Jan-29 14:32N 41°16' E 003°50'1918.7
2015-Jan-29 13:32N 41°16' E 004°15'2119.8
2015-Jan-29 12:28N 41°16' E 004°42'39210.0
2015-Jan-27 21:24N 40°42' E 013°20'2016.6
2015-Jan-27 20:11N 40°39' E 013°46'1016.6
2015-Jan-27 19:33N 40°39' E 013°60'1615.5
2015-Jan-27 18:30N 40°49' E 014°17'1 0.1
2015-Jan-27 06:07N 40°50' E 014°16'4 6.7
2015-Jan-27 05:33N 40°46' E 014°16'1514.5
2015-Jan-27 04:33N 40°39' E 013°60'1616.1
2015-Jan-27 03:33N 40°41' E 013°39'1615.7
2015-Jan-27 02:33N 40°44' E 013°19'38315.2
2015-Jan-26 01:27N 41°39' E 004°56'1617.1
2015-Jan-26 00:30N 41°41' E 004°34'1616.8
2015-Jan-25 23:33N 41°43' E 004°13'1717.1
2015-Jan-25 22:33N 41°45' E 003°50'89 5.1
2015-Jan-25 05:06N 40°55' E 002°12'1017.5
2015-Jan-25 04:33N 40°46' E 002°12'1313.0
2015-Jan-25 03:33N 40°33' E 002°13'1111.0
2015-Jan-25 02:34N 40°22' E 002°13'1414.2
2015-Jan-25 01:33N 40°08' E 002°14'1716.8
2015-Jan-25 00:33N 39°51' E 002°15'1917.6
2015-Jan-24 23:30N 39°32' E 002°17'1415.1
2015-Jan-24 22:33N 39°28' E 002°34'5 5.1
2015-Jan-24 21:32N 39°33' E 002°38'8991.8
2015-Jan-24 20:33N 39°00' E 004°25'175174.2
2015-Jan-24 19:33N 41°21' E 002°11'110107.6
2015-Jan-24 18:32N 39°33' E 002°38'0 0.0
2015-Jan-24 17:31N 39°33' E 002°38'0 0.0
2015-Jan-24 16:33N 39°33' E 002°38'0 0.0
2015-Jan-24 15:33N 39°33' E 002°38'0 0.0
2015-Jan-24 14:33N 39°33' E 002°38'0 0.0
2015-Jan-24 13:33N 39°33' E 002°38'0 0.0
2015-Jan-24 12:33N 39°33' E 002°38'0 0.0
2015-Jan-24 11:33N 39°33' E 002°38'0 0.0
2015-Jan-24 10:33N 39°33' E 002°38'0 0.0
2015-Jan-24 09:33N 39°33' E 002°38'0 0.0
2015-Jan-24 08:33N 39°33' E 002°38'0 0.0
2015-Jan-24 07:32N 39°33' E 002°38'0 0.0
2015-Jan-24 06:32N 39°33' E 002°38'0 0.0
2015-Jan-24 05:25N 39°33' E 002°38'0 0.0
2015-Jan-24 04:33N 39°33' E 002°38'3 3.3
2015-Jan-24 03:33N 39°30' E 002°36'8 8.3
2015-Jan-24 02:33N 39°26' E 002°27'1211.8
2015-Jan-24 01:33N 39°32' E 002°14'1514.9
2015-Jan-24 00:33N 39°47' E 002°11'1615.8
2015-Jan-23 23:33N 40°03' E 002°11'1616.2
2015-Jan-23 22:34N 40°19' E 002°11'1615.9
2015-Jan-23 21:33N 40°35' E 002°11'1010.2
2015-Jan-23 20:33N 40°45' E 002°11'1615.9
2015-Jan-23 19:33N 41°01' E 002°11'1716.2
2015-Jan-23 18:32N 41°18' E 002°10'4 1.8
2015-Jan-23 16:24N 41°21' E 002°11'0 0.0
2015-Jan-23 14:12N 41°21' E 002°11'0 0.0
2015-Jan-23 13:30N 41°21' E 002°11'0 0.0
2015-Jan-23 12:30N 41°21' E 002°11'0 0.0
2015-Jan-23 11:08N 41°21' E 002°11'0 0.0
2015-Jan-23 09:08N 41°21' E 002°11'0 0.0
2015-Jan-23 08:33N 41°21' E 002°11'6 4.5
2015-Jan-23 07:17N 41°16' E 002°13'7010.0
2015-Jan-23 00:18N 41°57' E 003°29'1615.4
2015-Jan-22 23:16N 42°08' E 003°44'4515.9
2015-Jan-22 20:28N 42°40' E 004°26'2217.6
2015-Jan-22 19:14N 42°55' E 004°48'1716.8
2015-Jan-22 18:13N 43°08' E 005°03'1116.8
2015-Jan-22 17:33N 43°16' E 005°13'6 6.4
2015-Jan-22 16:33N 43°21' E 005°20'0 0.0
2015-Jan-22 15:23N 43°21' E 005°20'0 0.0
2015-Jan-22 14:29N 43°21' E 005°20'0 0.0
2015-Jan-22 13:29N 43°21' E 005°20'0 0.0
2015-Jan-22 12:29N 43°21' E 005°20'0 0.0
2015-Jan-22 11:17N 43°21' E 005°20'0 0.0
2015-Jan-22 10:23N 43°21' E 005°20'0 0.0
2015-Jan-22 09:29N 43°21' E 005°20'0 0.0
2015-Jan-22 08:29N 43°21' E 005°20'0 0.0
2015-Jan-22 07:29N 43°21' E 005°20'0 0.0
2015-Jan-22 06:29N 43°21' E 005°20'3 3.4
2015-Jan-22 05:33N 43°19' E 005°16'1514.5
2015-Jan-22 04:33N 43°05' E 005°12'1615.7
2015-Jan-22 03:33N 42°55' E 004°55'1616.0
2015-Jan-22 02:33N 42°44' E 004°39'1515.4
2015-Jan-22 01:33N 42°33' E 004°24'8 8.0
2015-Jan-22 00:33N 42°28' E 004°17'33 8.2
2015-Jan-21 20:28N 42°05' E 003°44'8 8.0
2015-Jan-21 19:25N 41°59' E 003°36'11 7.9
2015-Jan-21 18:05N 41°52' E 003°25'6 7.2
2015-Jan-21 17:13N 41°49' E 003°18'5 7.1
2015-Jan-21 16:33N 41°46' E 003°13'8 7.8
2015-Jan-21 15:33N 41°42' E 003°04'18 8.3
2015-Jan-21 13:22N 41°31' E 002°45'  

Dump ship's entire track history